Aeroporto :
LOGIN :

Iscrizione | Disclaimer

   EN    FR    IT 

 










Sommario :    VFR   VFR Marginale   IFR   IFR Intensivo   IFR Molto Intensivo
Visibilità : 
Base nubi : 
>= 8 km
>= 3000ft
5 / 8 km
1000 / 3000 ft
1500m / 5 km
500 / 1000 ft
800 / 1500m
200 / 500 ft
< 800m
< 200 ft
Simboli :   Temporali  Nebbia  Neve Forte  Precipitazioni Forti  Vento > 20 kt
SIGMETs :   Varie  Temporali  Ghiacco  Turbolenza  Onda orograficha  Ceneri Vulcaniche






- Altitudine del aeroporto : 42 ft
- Codice IATA : CAL


EGEC - Campbeltown

ULTIMO METAR :
  • 040820Z 28011KT 9999 SCT007 BKN016 11/10 Q1005

METARs OBSOLETI :
  • 040750Z 28009KT 9999 FEW004 SCT006 BKN014 10/10 Q1005
  • 040720Z 29009KT 9999 FEW006 BKN016 10/09 Q1006
  • 040650Z 30009KT 9999 FEW006 BKN021 10/09 Q1006

TAF TAF EGEC
Valido dal 04 a 07 ore il 04 a 09 ore UTC


040700Z 0407/0409 29009KT 9999 FEW045
TEMPO 0407/0409 8000 SHRA BKN006



MetMap, La meteo Aeronautica in un colpo d'occhio ! - Copyright ORBIFLY Dicembre 2007 - Disclaimer

ORBIFLY MET'MAP TEAM :

Programmazione e sviluppo : Alexandra Zaïnal
Concezione : Baudouin d'Aumeries
Aiuto per la programmazione : Marc-Olivier Méhu
Supporto tecnico e logistico : Manuel Goepfert
Aiuto per la traduzione : Arnaldo La Scala

Contatto : metmap@orbifly.com




FONTI E CREDITI :

   NOAA